Time;durP1;ratioP1;P1;durP2;ratioP2;P2;SDS_P1;SDS_P2;PMS_P1;PMS_P2;Temp;Humidity;BMP_temperature;BMP_pressure;BME280_temperature;BME280_humidity;BME280_pressure;Samples;Min_cycle;Max_cycle;Signal;HPM_P1;HPM_P2
2023/07/21 00:01:03;;;;;;;7.13;2.10;;;13.00;99.90;;;13.20;100.00;100413.25;4988907;28;20117;-83
2023/07/21 00:03:30;;;;;;;4.50;2.08;;;13.00;99.90;;;13.19;100.00;100413.47;4987924;28;20070;-83
2023/07/21 00:05:56;;;;;;;7.40;2.37;;;13.00;99.90;;;13.26;100.00;100418.84;4988216;28;20542;-83
2023/07/21 00:08:24;;;;;;;5.35;2.05;;;13.10;99.90;;;13.34;100.00;100421.19;4986414;28;20035;-83
2023/07/21 00:10:50;;;;;;;5.03;2.30;;;13.10;99.90;;;13.35;100.00;100420.97;4992293;28;20091;-82
2023/07/21 00:13:15;;;;;;;4.13;2.00;;;13.10;99.90;;;13.42;100.00;100420.84;4988732;28;20039;-83
2023/07/21 00:15:42;;;;;;;5.95;2.00;;;13.10;99.90;;;13.46;100.00;100422.06;4979574;28;20035;-83
2023/07/21 00:18:07;;;;;;;3.92;2.13;;;13.20;99.90;;;13.49;100.00;100417.97;4986421;28;20483;-84
2023/07/21 00:20:34;;;;;;;5.30;2.03;;;13.20;99.90;;;13.54;100.00;100420.84;4988415;28;20159;-83
2023/07/21 00:23:00;;;;;;;3.78;1.90;;;13.30;99.90;;;13.53;100.00;100424.66;5000461;28;20137;-84
2023/07/21 00:25:29;;;;;;;5.32;2.05;;;13.30;99.90;;;13.49;100.00;100409.75;4987464;28;20045;-83
2023/07/21 00:27:55;;;;;;;4.25;2.08;;;13.30;99.90;;;13.55;100.00;100417.03;4991314;28;20042;-83
2023/07/21 00:30:22;;;;;;;4.88;2.00;;;13.30;99.90;;;13.57;100.00;100409.41;5000315;28;20402;-83
2023/07/21 00:32:47;;;;;;;5.40;2.00;;;13.30;99.90;;;13.53;100.00;100405.47;4987132;28;20049;-83
2023/07/21 00:35:13;;;;;;;6.88;2.40;;;13.30;99.90;;;13.52;100.00;100401.03;4985894;28;20030;-83
2023/07/21 00:37:40;;;;;;;6.32;2.25;;;13.30;99.90;;;13.56;100.00;100401.41;4979678;28;20471;-83
2023/07/21 00:40:09;;;;;;;4.22;1.95;;;13.30;99.90;;;13.57;100.00;100397.59;4980743;28;20509;-83
2023/07/21 00:42:36;;;;;;;5.03;2.28;;;13.30;99.90;;;13.57;100.00;100395.69;4995736;28;20042;-83
2023/07/21 00:45:03;;;;;;;8.23;2.20;;;13.30;99.90;;;13.52;100.00;100388.19;4988058;28;20035;-83
2023/07/21 00:47:29;;;;;;;5.57;2.65;;;13.30;99.90;;;13.47;100.00;100382.63;5011255;28;20042;-83
2023/07/21 00:49:56;;;;;;;6.60;2.45;;;13.30;99.90;;;13.50;100.00;100394.97;4996481;28;20058;-82
2023/07/21 00:52:23;;;;;;;4.05;2.20;;;13.30;99.90;;;13.56;100.00;100390.44;5006005;28;20092;-83
2023/07/21 00:54:51;;;;;;;5.03;2.33;;;13.30;99.90;;;13.59;100.00;100384.47;4997532;28;20042;-80
2023/07/21 00:57:16;;;;;;;4.07;2.30;;;13.30;99.90;;;13.60;100.00;100381.50;4993527;28;20030;-84
2023/07/21 00:59:42;;;;;;;4.60;2.20;;;13.40;99.90;;;13.65;100.00;100380.75;4986977;28;20038;-83
2023/07/21 01:02:08;;;;;;;4.05;2.30;;;13.40;99.90;;;13.66;100.00;100379.69;4984961;28;20046;-83
2023/07/21 01:04:36;;;;;;;6.60;2.30;;;13.40;99.90;;;13.70;100.00;100382.78;4971536;28;20053;-83
2023/07/21 01:07:06;;;;;;;5.80;2.25;;;13.40;99.90;;;13.73;100.00;100385.00;4983382;28;20546;-83
2023/07/21 01:09:35;;;;;;;5.65;2.45;;;13.40;99.90;;;13.75;100.00;100370.00;4988433;28;20043;-83
2023/07/21 01:12:05;;;;;;;5.72;2.25;;;13.40;99.90;;;13.74;100.00;100375.72;4981864;28;20077;-83
2023/07/21 01:14:35;;;;;;;6.53;2.85;;;13.40;99.90;;;13.79;100.00;100379.41;5006199;28;20047;-82
2023/07/21 01:17:06;;;;;;;5.10;2.45;;;13.50;99.90;;;13.83;100.00;100390.72;4984942;28;20042;-83
2023/07/21 01:19:34;;;;;;;3.83;2.10;;;13.50;99.90;;;13.85;100.00;100384.97;4988881;28;20038;-83
2023/07/21 01:22:25;;;;;;;5.13;2.17;;;13.50;99.90;;;13.85;100.00;100384.97;4982785;28;20060;-83
2023/07/21 01:24:52;;;;;;;4.80;2.08;;;13.50;99.90;;;13.87;100.00;100383.66;4982035;28;20522;-83
2023/07/21 01:27:22;;;;;;;5.18;2.25;;;13.50;99.90;;;13.89;100.00;100383.41;5000853;28;20133;-83
2023/07/21 01:29:50;;;;;;;4.63;2.20;;;13.50;99.90;;;13.89;100.00;100381.50;5016793;28;20007;-82
2023/07/21 01:32:18;;;;;;;;;;;13.50;99.90;;;13.88;100.00;100388.06;5025020;28;20035;-81
2023/07/21 01:34:45;;;;;;;4.78;2.25;;;13.60;99.90;;;13.93;100.00;100388.16;5014957;28;19918;-82
2023/07/21 01:37:13;;;;;;;7.47;2.30;;;13.70;99.90;;;13.94;100.00;100378.84;5029286;28;20097;-82
2023/07/21 01:39:40;;;;;;;;;;;13.70;99.90;;;14.00;100.00;100395.41;5002535;28;20043;-84
2023/07/21 01:42:08;;;;;;;6.10;2.10;;;13.80;99.90;;;14.10;100.00;100392.84;5002368;28;19918;-82
2023/07/21 01:44:34;;;;;;;4.18;2.05;;;13.90;99.90;;;14.00;100.00;100381.69;4990443;28;20070;-81
2023/07/21 01:47:00;;;;;;;4.47;2.50;;;13.90;99.90;;;14.13;100.00;100400.59;4989269;28;20050;-81
2023/07/21 01:49:26;;;;;;;7.72;2.65;;;13.90;99.90;;;14.16;100.00;100397.34;4983356;28;20046;-81
2023/07/21 01:51:56;;;;;;;6.13;2.53;;;13.90;99.90;;;14.21;100.00;100397.44;4984625;28;20050;-80
2023/07/21 01:54:49;;;;;;;8.27;2.85;;;14.00;99.90;;;14.22;100.00;100382.63;4983135;28;20034;-80
2023/07/21 01:57:31;;;;;;;5.82;2.95;;;14.00;99.90;;;14.20;100.00;100387.53;4984725;28;20026;-79
2023/07/21 02:00:02;;;;;;;6.60;3.00;;;14.00;99.90;;;14.19;100.00;100379.53;4989454;28;20031;-79
2023/07/21 02:02:44;;;;;;;6.13;2.90;;;13.90;99.90;;;14.18;100.00;100372.41;4981469;28;20693;-78
2023/07/21 02:05:22;;;;;;;6.90;2.97;;;13.90;99.90;;;14.10;100.00;100365.44;4998138;28;20027;-78
2023/07/21 02:07:49;;;;;;;6.93;3.00;;;13.90;99.90;;;14.14;100.00;100365.75;4983112;28;20495;-78
2023/07/21 02:10:15;;;;;;;4.50;3.08;;;13.90;99.90;;;14.06;100.00;100354.09;4990146;28;20069;-77
2023/07/21 02:12:44;;;;;;;5.78;3.20;;;13.90;99.90;;;13.98;100.00;100348.19;4989395;28;20050;-76
2023/07/21 02:15:13;;;;;;;5.28;2.95;;;13.90;99.90;;;13.92;100.00;100341.78;4972803;28;20050;-77
2023/07/21 02:17:40;;;;;;;8.50;3.30;;;13.90;99.90;;;13.91;100.00;100343.69;4991070;28;20030;-78
2023/07/21 02:20:09;;;;;;;4.68;3.28;;;13.80;99.90;;;13.89;100.00;100332.16;4983088;28;20640;-78
2023/07/21 02:22:43;;;;;;;6.93;3.47;;;13.70;99.90;;;13.83;100.00;100315.84;4988328;28;20043;-76
2023/07/21 02:25:13;;;;;;;5.20;3.35;;;13.60;99.90;;;13.72;100.00;100309.34;4990853;28;20041;-75
2023/07/21 02:27:39;;;;;;;7.07;3.20;;;13.70;99.90;;;13.62;100.00;100312.72;5011485;28;20045;-75
2023/07/21 02:30:06;;;;;;;7.78;3.40;;;13.70;99.90;;;13.59;100.00;100318.69;4987881;28;20038;-75
2023/07/21 02:32:33;;;;;;;7.85;3.50;;;13.70;99.90;;;13.59;100.00;100324.19;4995272;28;20042;-75
2023/07/21 02:34:58;;;;;;;9.40;3.90;;;13.70;99.90;;;13.54;100.00;100335.03;4999840;28;20038;-76
2023/07/21 02:37:27;;;;;;;7.32;4.18;;;13.60;99.90;;;13.52;100.00;100327.06;4997300;28;20054;-74
2023/07/21 02:39:55;;;;;;;5.68;3.58;;;13.60;99.90;;;13.49;100.00;100311.94;5003514;28;20041;-75
2023/07/21 02:42:20;;;;;;;8.25;3.88;;;13.60;99.90;;;13.51;100.00;100312.53;4995682;28;20038;-78
2023/07/21 02:44:46;;;;;;;8.98;4.10;;;13.60;99.90;;;13.43;100.00;100301.13;5010481;28;20056;-76
2023/07/21 02:47:18;;;;;;;9.70;4.20;;;13.60;99.90;;;13.43;100.00;100301.13;4992847;28;20050;-76
2023/07/21 02:49:47;;;;;;;6.97;3.92;;;13.50;99.90;;;13.39;100.00;100295.25;4997120;28;20090;-75
2023/07/21 02:52:16;;;;;;;9.40;4.13;;;13.50;99.90;;;13.31;100.00;100279.22;4996345;28;20026;-76
2023/07/21 02:54:47;;;;;;;6.82;3.97;;;13.50;99.90;;;13.31;100.00;100263.63;4984483;28;20031;-77
2023/07/21 02:57:13;;;;;;;8.70;4.15;;;13.40;99.90;;;13.30;100.00;100258.38;4995584;28;20034;-77
2023/07/21 02:59:41;;;;;;;8.80;4.43;;;13.40;99.90;;;13.28;100.00;100255.06;5005402;28;20534;-76
2023/07/21 03:02:07;;;;;;;9.40;3.90;;;13.40;99.90;;;13.32;100.00;100248.00;4990501;28;20117;-77
2023/07/21 03:04:42;;;;;;;7.50;4.53;;;13.30;99.90;;;13.42;100.00;100248.22;5008706;28;20050;-78
2023/07/21 03:07:08;;;;;;;8.48;4.65;;;13.20;99.90;;;13.43;100.00;100249.91;4990083;28;20097;-77
2023/07/21 03:09:35;;;;;;;7.78;5.50;;;13.20;99.90;;;13.44;100.00;100240.63;4992351;28;20030;-77
2023/07/21 03:12:02;;;;;;;7.07;4.40;;;13.20;99.90;;;13.43;100.00;100240.84;4979680;28;20042;-77
2023/07/21 03:14:48;;;;;;;10.77;4.68;;;13.10;99.90;;;13.45;100.00;100239.53;4994268;28;20052;-77
2023/07/21 03:17:15;;;;;;;8.77;5.28;;;13.20;99.90;;;13.40;100.00;100217.50;5001940;28;20037;-77
2023/07/21 03:19:41;;;;;;;9.27;4.80;;;13.20;99.90;;;13.42;100.00;100219.97;4978780;28;20043;-78
2023/07/21 03:22:10;;;;;;;11.32;5.32;;;13.20;99.90;;;13.38;100.00;100211.41;4964032;28;20054;-78
2023/07/21 03:24:39;;;;;;;7.68;5.40;;;13.10;99.90;;;13.43;100.00;100213.44;4986362;28;20041;-77
2023/07/21 03:27:07;;;;;;;7.60;5.03;;;13.10;99.90;;;13.34;100.00;100208.34;4985597;28;20098;-77
2023/07/21 03:29:36;;;;;;;10.23;6.05;;;13.00;99.90;;;13.26;100.00;100216.13;4988431;28;20030;-78
2023/07/21 03:32:03;;;;;;;7.55;5.13;;;13.00;99.90;;;13.24;100.00;100208.16;4983123;28;20505;-78
2023/07/21 03:34:29;;;;;;;10.80;5.55;;;13.00;99.90;;;13.24;100.00;100208.16;4990834;28;20066;-77
2023/07/21 03:36:55;;;;;;;8.73;4.93;;;12.90;99.90;;;13.21;100.00;100205.91;4992988;28;20093;-78
2023/07/21 03:39:23;;;;;;;10.77;5.57;;;12.90;99.90;;;13.13;100.00;100198.09;4992906;28;20038;-77
2023/07/21 03:41:49;;;;;;;9.23;4.70;;;12.90;99.90;;;13.09;100.00;100195.84;4986463;28;20030;-77
2023/07/21 03:44:15;;;;;;;7.65;4.68;;;12.90;99.90;;;13.21;100.00;100206.75;4991298;28;20062;-78
2023/07/21 03:46:43;;;;;;;;;;;12.90;99.90;;;13.20;100.00;100204.25;4981580;28;20054;-78
2023/07/21 03:49:41;;;;;;;8.70;5.13;;;12.80;99.90;;;13.13;100.00;100195.34;4994872;28;19931;-78
2023/07/21 03:52:11;;;;;;;;;;;12.80;99.90;;;13.05;100.00;100191.94;4985725;28;20045;-78
2023/07/21 03:54:38;;;;;;;9.45;5.57;;;12.70;99.90;;;13.01;100.00;100193.50;4989772;28;19918;-78
2023/07/21 03:57:05;;;;;;;9.48;5.97;;;12.60;99.90;;;12.95;100.00;100195.31;4988271;28;20042;-78
2023/07/21 03:59:31;;;;;;;10.85;5.50;;;12.60;99.90;;;12.91;100.00;100180.44;5000558;28;20461;-77
2023/07/21 04:01:58;;;;;;;9.07;6.18;;;12.50;99.90;;;12.91;100.00;100172.22;4998949;28;20491;-78
2023/07/21 04:04:24;;;;;;;11.37;7.07;;;12.50;99.90;;;12.91;100.00;100171.38;4991140;28;20042;-77
2023/07/21 04:06:50;;;;;;;12.52;7.13;;;12.60;99.90;;;12.99;100.00;100165.50;4980997;28;20347;-78
2023/07/21 04:09:16;;;;;;;9.90;6.53;;;12.60;99.90;;;13.03;100.00;100153.00;4985977;28;20034;-78
2023/07/21 04:11:42;;;;;;;12.10;6.65;;;12.70;99.90;;;13.14;100.00;100153.19;4988636;28;20429;-77
2023/07/21 04:14:09;;;;;;;12.30;7.25;;;12.70;99.90;;;13.17;100.00;100149.94;4990184;28;20042;-78
2023/07/21 04:16:35;;;;;;;11.32;7.00;;;12.80;99.90;;;13.21;100.00;100148.38;5002144;28;20074;-78
2023/07/21 04:19:01;;;;;;;9.38;6.50;;;12.80;99.90;;;13.26;100.00;100150.38;4985964;28;20039;-78
2023/07/21 04:21:29;;;;;;;10.10;6.40;;;12.80;99.90;;;13.20;100.00;100124.81;4987735;28;20035;-78
2023/07/21 04:23:55;;;;;;;12.30;6.72;;;12.90;99.90;;;13.41;100.00;100149.81;5000040;28;20039;-78
2023/07/21 04:26:21;;;;;;;11.32;6.93;;;13.00;99.90;;;13.45;100.00;100151.84;4989709;28;20552;-79
2023/07/21 04:28:47;;;;;;;13.98;6.70;;;13.00;99.90;;;13.52;100.00;100149.78;4989604;28;20510;-78
2023/07/21 04:31:15;;;;;;;11.48;7.22;;;13.10;99.90;;;13.56;100.00;100144.63;4986473;28;20498;-78
2023/07/21 04:33:58;;;;;;;11.23;6.88;;;13.10;99.90;;;13.61;100.00;100135.66;4990622;28;20045;-78
2023/07/21 04:36:27;;;;;;;11.07;6.50;;;13.20;99.90;;;13.76;100.00;100146.03;4985459;28;20049;-78
2023/07/21 04:38:54;;;;;;;11.40;6.93;;;13.30;99.90;;;13.83;100.00;100141.22;4988543;28;20034;-78
2023/07/21 04:41:21;;;;;;;11.25;6.47;;;13.40;99.90;;;13.88;100.00;100146.78;5006580;28;20065;-78
2023/07/21 04:43:46;;;;;;;10.15;6.93;;;13.40;99.90;;;13.95;100.00;100147.41;4990061;28;20406;-79
2023/07/21 04:46:13;;;;;;;9.00;6.90;;;13.50;99.90;;;13.92;100.00;100130.63;4986690;28;20037;-78
2023/07/21 04:48:43;;;;;;;11.38;7.25;;;13.60;99.90;;;14.00;100.00;100138.44;4980480;28;20038;-78
2023/07/21 04:51:12;;;;;;;11.50;7.18;;;13.60;99.90;;;13.98;100.00;100143.34;5001903;28;20086;-77
2023/07/21 04:53:38;;;;;;;9.75;6.60;;;13.70;99.90;;;14.01;100.00;100161.19;4988250;28;20551;-78
2023/07/21 04:56:05;;;;;;;10.45;6.93;;;13.70;99.90;;;14.00;100.00;100170.50;4988801;28;20058;-78
2023/07/21 04:58:35;;;;;;;9.55;6.50;;;13.60;99.90;;;14.04;100.00;100178.00;4986940;28;20038;-79
2023/07/21 05:01:01;;;;;;;10.05;6.55;;;13.60;99.90;;;14.01;100.00;100177.66;4998708;28;20499;-79
2023/07/21 05:03:27;;;;;;;12.48;6.97;;;13.60;99.90;;;13.99;100.00;100177.09;5007502;28;20027;-79
2023/07/21 05:05:53;;;;;;;9.95;6.57;;;13.60;99.90;;;13.92;100.00;100180.00;5001689;28;20077;-78
2023/07/21 05:08:25;;;;;;;9.70;7.22;;;13.50;99.90;;;13.88;100.00;100181.56;5003744;28;20046;-79
2023/07/21 05:10:54;;;;;;;9.93;6.90;;;13.50;99.90;;;13.90;100.00;100174.78;5001768;28;20042;-79
2023/07/21 05:13:20;;;;;;;12.00;7.18;;;13.50;99.90;;;13.99;100.00;100169.69;4993293;28;20391;-79
2023/07/21 05:16:19;;;;;;;10.73;6.90;;;13.70;99.90;;;14.13;100.00;100175.66;4993360;28;20109;-79
2023/07/21 05:19:11;;;;;;;11.60;6.88;;;13.70;99.90;;;14.35;100.00;100183.91;4985749;28;20058;-79
2023/07/21 05:21:37;;;;;;;10.02;6.78;;;14.00;99.90;;;14.58;100.00;100182.03;5003781;28;20074;-78
2023/07/21 05:24:22;;;;;;;9.65;6.05;;;14.10;99.90;;;14.72;100.00;100196.22;5010686;28;20038;-79
2023/07/21 05:26:48;;;;;;;8.40;5.80;;;14.40;99.90;;;14.78;100.00;100230.88;4991030;28;20034;-78
2023/07/21 05:29:35;;;;;;;7.90;4.97;;;14.40;99.90;;;14.93;100.00;100256.91;5011222;28;20038;-80
2023/07/21 05:32:03;;;;;;;6.75;5.00;;;14.60;99.90;;;15.01;100.00;100259.19;5010412;28;20090;-79
2023/07/21 05:34:33;;;;;;;10.23;5.10;;;14.70;99.90;;;14.98;100.00;100256.94;4984147;28;20039;-79
2023/07/21 05:37:01;;;;;;;7.43;4.90;;;14.70;99.90;;;15.07;100.00;100260.09;5002172;28;20517;-80
2023/07/21 05:39:30;;;;;;;7.53;4.50;;;14.80;99.90;;;15.14;100.00;100265.38;5001796;28;20038;-79
2023/07/21 05:41:58;;;;;;;9.30;5.28;;;14.80;99.90;;;15.17;100.00;100273.13;4961809;28;20042;-78
2023/07/21 05:44:26;;;;;;;7.05;4.15;;;14.90;99.90;;;15.23;100.00;100272.09;4997710;28;20033;-79
2023/07/21 05:46:52;;;;;;;14.65;5.97;;;14.90;99.90;;;15.12;100.00;100262.88;4987880;28;20435;-79
2023/07/21 05:49:18;;;;;;;7.70;4.28;;;14.90;99.90;;;14.93;100.00;100278.88;4988108;28;20065;-79
2023/07/21 05:51:44;;;;;;;8.25;4.10;;;14.90;99.90;;;15.01;100.00;100280.34;4991216;28;20107;-79
2023/07/21 05:54:41;;;;;;;7.53;3.92;;;14.90;99.90;;;14.81;100.00;100279.81;4994205;28;20292;-79
2023/07/21 05:57:07;;;;;;;7.18;4.13;;;14.80;99.90;;;14.89;100.00;100272.22;4987839;28;20479;-78
2023/07/21 05:59:41;;;;;;;8.85;4.22;;;14.80;99.90;;;15.01;100.00;100289.41;4989602;28;20522;-78
2023/07/21 06:02:08;;;;;;;7.03;3.70;;;14.80;99.90;;;15.05;100.00;100279.56;4990243;28;20039;-79
2023/07/21 06:04:35;;;;;;;7.53;3.47;;;14.80;99.90;;;15.10;100.00;100285.09;4998922;28;20486;-79
2023/07/21 06:07:23;;;;;;;9.18;4.25;;;14.90;99.90;;;15.23;100.00;100294.06;4988839;28;20125;-80
2023/07/21 06:10:02;;;;;;;8.40;3.85;;;15.00;99.90;;;15.34;100.00;100293.09;4978162;28;20075;-80
2023/07/21 06:12:39;;;;;;;7.60;3.85;;;15.10;99.90;;;15.30;100.00;100283.69;4986561;28;20031;-79
2023/07/21 06:15:25;;;;;;;9.60;3.60;;;15.20;99.90;;;15.60;100.00;100296.09;4986350;28;20057;-80
2023/07/21 06:18:02;;;;;;;9.02;3.30;;;15.30;99.90;;;15.68;100.00;100303.91;4999059;28;20039;-80
2023/07/21 06:20:29;;;;;;;5.75;3.72;;;15.40;99.90;;;15.85;100.00;100291.94;4968697;28;20026;-78
2023/07/21 06:22:57;;;;;;;6.45;3.00;;;15.60;99.90;;;16.08;100.00;100301.00;4989806;28;20513;-79
2023/07/21 06:25:25;;;;;;;7.88;3.20;;;15.70;99.90;;;16.13;100.00;100306.53;4989836;28;20045;-81
2023/07/21 06:27:58;;;;;;;6.40;3.47;;;15.80;99.90;;;16.36;100.00;100302.59;5004512;28;20040;-81
2023/07/21 06:30:24;;;;;;;8.13;3.00;;;16.00;99.90;;;16.41;100.00;100307.28;4995321;28;20395;-80
2023/07/21 06:32:51;;;;;;;5.70;2.60;;;16.20;99.90;;;16.56;100.00;100303.00;4989448;28;20101;-80
2023/07/21 06:35:35;;;;;;;5.22;2.60;;;16.30;99.90;;;16.44;100.00;100308.69;4992745;28;20071;-80
2023/07/21 06:38:13;;;;;;;4.72;2.90;;;16.30;99.90;;;16.76;100.00;100305.03;4987858;28;20037;-78
2023/07/21 06:41:00;;;;;;;5.80;2.70;;;16.50;99.90;;;16.74;100.00;100299.81;4983881;28;20061;-80
2023/07/21 06:43:32;;;;;;;5.80;2.75;;;16.60;99.90;;;16.64;100.00;100303.34;4979302;28;20035;-81
2023/07/21 06:46:16;;;;;;;5.53;3.00;;;16.50;99.90;;;16.71;100.00;100305.00;4985054;28;20058;-81
2023/07/21 06:48:46;;;;;;;4.80;2.97;;;16.60;99.90;;;16.87;100.00;100300.41;4987707;28;20026;-81
2023/07/21 06:51:22;;;;;;;6.18;2.47;;;16.60;99.90;;;17.08;100.00;100306.88;4991504;28;20034;-81
2023/07/21 06:53:49;;;;;;;5.05;2.67;;;16.80;99.90;;;17.20;100.00;100298.38;4990025;28;20042;-80
2023/07/21 06:56:15;;;;;;;8.07;3.05;;;16.90;99.90;;;17.05;100.00;100299.16;4978581;28;20050;-82
2023/07/21 06:58:43;;;;;;;5.90;2.45;;;16.90;99.90;;;17.28;100.00;100302.56;4989285;28;20047;-80
2023/07/21 07:01:09;;;;;;;5.40;2.47;;;17.00;99.90;;;17.61;100.00;100308.69;4979996;28;20042;-81
2023/07/21 07:03:35;;;;;;;7.22;2.47;;;17.30;99.90;;;18.05;100.00;100305.50;4993648;28;20116;-79
2023/07/21 07:06:01;;;;;;;5.80;2.00;;;17.60;99.90;;;18.42;100.00;100291.66;4992487;28;20402;-80
2023/07/21 07:08:27;;;;;;;6.47;2.60;;;18.00;99.90;;;18.18;100.00;100284.78;4988564;28;20046;-82
2023/07/21 07:10:53;;;;;;;7.22;2.70;;;18.10;99.90;;;18.03;100.00;100293.06;4991434;28;20041;-81
2023/07/21 07:13:19;;;;;;;4.68;2.17;;;18.00;99.90;;;18.25;100.00;100290.84;4992659;28;20454;-82
2023/07/21 07:15:50;;;;;;;7.13;2.55;;;18.00;99.90;;;18.29;100.00;100284.78;5002536;28;20038;-81
2023/07/21 07:18:16;;;;;;;5.38;2.50;;;18.10;99.90;;;18.39;100.00;100270.97;4993807;28;20038;-80
2023/07/21 07:20:50;;;;;;;5.15;2.30;;;18.10;99.90;;;18.59;100.00;100274.81;4988769;28;20050;-81
2023/07/21 07:23:16;;;;;;;5.80;2.40;;;18.20;99.90;;;18.67;100.00;100268.69;4988064;28;20030;-81
2023/07/21 07:25:50;;;;;;;5.57;2.17;;;18.40;99.90;;;18.78;100.00;100278.59;4987148;28;20043;-82
2023/07/21 07:28:18;;;;;;;5.70;2.33;;;18.50;99.90;;;18.63;100.00;100271.19;4981883;28;20042;-82
2023/07/21 07:30:45;;;;;;;4.75;2.00;;;18.60;99.90;;;18.90;100.00;100277.47;4992050;28;20390;-80
2023/07/21 07:33:11;;;;;;;4.32;2.08;;;18.70;99.90;;;19.00;100.00;100271.91;4985471;28;20057;-81
2023/07/21 07:35:46;;;;;;;5.55;2.47;;;18.80;99.90;;;19.10;100.00;100271.06;4991207;28;20030;-81
2023/07/21 07:38:12;;;;;;;6.47;2.38;;;18.80;99.90;;;19.06;100.00;100272.72;4985886;28;20197;-81
2023/07/21 07:40:38;;;;;;;5.10;2.22;;;18.90;99.90;;;19.23;100.00;100262.16;4988627;28;20026;-82
2023/07/21 07:43:03;;;;;;;7.13;2.13;;;19.00;99.90;;;19.52;100.00;100274.41;4992110;28;20041;-81
2023/07/21 07:45:29;;;;;;;6.13;2.13;;;19.20;99.90;;;19.86;100.00;100276.38;4987104;28;20039;-80
2023/07/21 07:47:55;;;;;;;3.70;2.10;;;19.40;99.90;;;20.16;100.00;100268.16;4986291;28;20415;-80
2023/07/21 07:50:21;;;;;;;4.68;2.03;;;19.80;99.90;;;20.22;100.00;100262.28;4990479;28;20030;-79
2023/07/21 07:52:47;;;;;;;3.90;1.92;;;20.00;99.90;;;19.92;100.00;100263.38;4986734;28;20550;-80
2023/07/21 07:55:15;;;;;;;4.68;1.75;;;20.10;99.90;;;20.03;100.00;100253.88;4989100;28;20030;-80
2023/07/21 07:57:40;;;;;;;;;;;20.20;99.90;;;20.32;100.00;100266.06;5006825;28;20410;-79
2023/07/21 08:00:08;;;;;;;3.40;1.70;;;20.30;99.90;;;20.50;100.00;100258.97;4990212;28;19965;-81
2023/07/21 08:02:37;;;;;;;3.80;1.73;;;20.40;99.90;;;20.66;100.00;100273.47;4984534;28;20120;-81
2023/07/21 08:05:03;;;;;;;4.28;2.00;;;20.60;99.90;;;20.59;100.00;100259.16;4991472;28;20478;-81
2023/07/21 08:07:29;;;;;;;3.50;1.88;;;20.40;99.90;;;20.58;100.00;100257.50;4989518;28;20058;-81
2023/07/21 08:09:54;;;;;;;4.47;1.95;;;20.40;99.90;;;20.29;100.00;100261.13;4985183;28;20038;-80
2023/07/21 08:12:20;;;;;;;4.00;2.20;;;20.40;99.90;;;20.28;100.00;100254.75;4984647;28;20113;-81
2023/07/21 08:14:46;;;;;;;7.65;2.08;;;20.30;99.90;;;20.74;100.00;100244.28;4990452;28;20046;-81
2023/07/21 08:17:12;;;;;;;4.47;2.00;;;20.50;99.90;;;20.75;100.00;100252.31;4991375;28;20023;-81
2023/07/21 08:19:37;;;;;;;3.92;2.03;;;20.60;99.90;;;21.02;100.00;100245.38;4991141;28;20041;-80
2023/07/21 08:22:07;;;;;;;3.95;2.17;;;20.70;99.90;;;21.18;100.00;100245.16;4979864;28;20038;-80
2023/07/21 08:24:33;;;;;;;4.35;2.00;;;20.90;99.90;;;21.42;100.00;100242.34;4986027;28;20049;-81
2023/07/21 08:26:59;;;;;;;4.18;2.30;;;21.30;99.90;;;21.29;95.25;100241.13;4991076;28;20030;-80
2023/07/21 08:29:28;;;;;;;4.40;2.10;;;21.20;99.90;;;21.02;95.82;100239.81;4984154;28;20486;-81
2023/07/21 08:31:53;;;;;;;4.60;2.20;;;21.00;99.90;;;21.20;98.30;100240.13;4991391;28;20030;-79
2023/07/21 08:34:19;;;;;;;4.45;2.20;;;21.10;99.90;;;21.42;94.81;100242.34;4984799;28;20471;-80
2023/07/21 08:36:45;;;;;;;5.63;2.70;;;21.30;99.90;;;21.31;93.71;100247.19;4998673;28;20117;-79
2023/07/21 08:39:11;;;;;;;4.55;2.28;;;21.40;99.90;;;20.94;93.57;100240.47;4983591;28;20390;-80
2023/07/21 08:41:46;;;;;;;5.15;2.10;;;21.40;99.90;;;21.22;91.45;100233.16;4990804;28;20049;-80
2023/07/21 08:44:15;;;;;;;5.03;2.40;;;21.20;99.90;;;21.46;89.08;100231.44;4984743;28;20026;-80
2023/07/21 08:46:41;;;;;;;4.38;2.22;;;21.30;99.60;;;21.89;86.28;100236.91;5005907;28;20050;-80
2023/07/21 08:49:08;;;;;;;5.43;1.90;;;21.60;99.50;;;22.14;78.22;100229.25;4985704;28;20391;-80
2023/07/21 08:51:36;;;;;;;3.92;2.05;;;21.90;97.50;;;22.21;80.03;100218.56;4986126;28;20039;-82
2023/07/21 08:54:01;;;;;;;;;;;22.10;97.40;;;22.35;77.52;100226.09;4990286;28;20045;-81
2023/07/21 08:56:27;;;;;;;3.22;2.00;;;22.30;96.50;;;22.30;72.49;100215.09;4989804;28;20290;-81
2023/07/21 08:58:53;;;;;;;3.40;2.30;;;22.20;95.70;;;21.92;73.59;100222.41;4977813;28;20121;-80
2023/07/21 09:01:19;;;;;;;5.40;2.40;;;22.00;95.00;;;21.93;69.22;100212.13;5004852;28;20030;-80
2023/07/21 09:03:46;;;;;;;3.38;2.00;;;22.10;93.70;;;22.28;69.92;100215.41;4990720;28;20042;-80
2023/07/21 09:06:14;;;;;;;3.15;2.10;;;22.20;94.20;;;22.47;68.38;100215.34;4990288;28;20050;-82
2023/07/21 09:08:40;;;;;;;3.53;2.08;;;22.50;93.70;;;22.62;70.15;100224.50;4989474;28;20478;-79
2023/07/21 09:11:08;;;;;;;3.20;1.98;;;22.50;94.30;;;23.02;63.39;100201.72;4989736;28;20045;-80
2023/07/21 09:13:34;;;;;;;2.33;1.65;;;;;;;23.82;70.64;100223.53;4986003;28;20041;-80
2023/07/21 09:16:05;;;;;;;3.30;2.30;;;;;;;23.96;62.61;100212.31;4983890;28;20509;-81
2023/07/21 09:18:42;;;;;;;2.80;1.90;;;;;;;24.22;64.71;100220.03;4988466;28;20034;-81
2023/07/21 09:21:24;;;;;;;4.80;2.42;;;;;;;24.34;57.65;100206.31;4990059;28;20073;-80
2023/07/21 09:23:51;;;;;;;4.35;2.00;;;;;;;24.18;58.97;100219.03;5006432;28;20045;-82
2023/07/21 09:26:24;;;;;;;3.72;1.67;;;;;;;24.10;56.43;100203.91;4988337;28;20037;-82
2023/07/21 09:28:50;;;;;;;3.45;1.90;;;;;;;24.53;54.75;100196.88;4979548;28;20069;-81
2023/07/21 09:31:16;;;;;;;3.40;2.00;;;;;;;24.31;53.51;100195.81;4978213;28;20030;-84
2023/07/21 09:33:44;;;;;;;4.30;2.00;;;;;;;24.59;52.92;100195.59;4976768;28;20431;-80
2023/07/21 09:36:15;;;;;;;2.25;1.65;;;;;;;24.81;51.71;100185.53;4989118;28;20054;-80
2023/07/21 09:38:43;;;;;;;3.65;2.03;;;;;;;24.41;51.35;100184.38;4988098;28;20050;-82
2023/07/21 09:41:15;;;;;;;3.47;1.80;;;;;;;22.92;53.98;100211.09;4990094;28;20137;-79
2023/07/21 09:43:42;;;;;;;5.18;1.98;;;22.90;92.20;;;22.48;55.96;100205.88;4984860;28;20116;-81
2023/07/21 09:46:09;;;;;;;4.57;1.90;;;23.30;83.40;;;22.79;56.72;100199.66;4988053;28;20449;-81
2023/07/21 09:48:40;;;;;;;4.10;2.10;;;;;;;23.10;55.18;100210.16;4990324;28;20399;-79
2023/07/21 09:51:07;;;;;;;4.45;2.13;;;23.20;84.40;;;22.10;59.72;100209.59;4985231;28;20053;-79
2023/07/21 09:53:42;;;;;;;3.10;1.90;;;23.10;84.40;;;22.23;65.53;100199.63;4983601;28;20138;-82
2023/07/21 09:56:11;;;;;;;3.05;1.85;;;22.70;88.30;;;22.74;61.71;100202.56;4993108;28;20050;-83
2023/07/21 09:58:50;;;;;;;2.63;1.90;;;22.80;87.80;;;21.87;63.96;100210.56;4995951;28;20035;-82
2023/07/21 10:01:16;;;;;;;3.17;2.00;;;22.50;87.60;;;22.23;64.13;100196.84;5001970;28;20030;-83
2023/07/21 10:03:42;;;;;;;3.35;1.90;;;22.20;89.00;;;21.88;66.84;100199.16;4988434;28;20399;-78
2023/07/21 10:06:08;;;;;;;5.25;2.45;;;22.20;90.00;;;21.53;72.42;100209.72;4989401;28;20018;-81
2023/07/21 10:08:36;;;;;;;12.68;5.05;;;21.80;90.70;;;21.29;77.07;100210.63;4989556;28;20039;-79
2023/07/21 10:11:07;;;;;;;6.38;2.92;;;21.60;91.80;;;20.92;85.49;100206.66;4987572;28;20042;-77
2023/07/21 10:13:38;;;;;;;5.20;2.40;;;21.20;93.30;;;20.50;89.47;100206.31;4988884;28;20038;-79
2023/07/21 10:16:09;;;;;;;5.78;2.30;;;20.90;93.90;;;20.40;90.56;100207.25;4988105;28;20054;-78
2023/07/21 10:18:36;;;;;;;5.68;2.40;;;20.70;94.40;;;20.48;88.20;100201.09;4989248;28;20026;-81